This is the latest recevied weather packets stored in our database for station/object OE-11121. If no packets are shown the sender has not sent any weather packets the latest 10 day(s).
| Time | Temp. | Humidity | Pressure | Rain* | Wind** | Luminosity | Snow |
|---|---|---|---|---|---|---|---|
| 1787785533 | 16.67° C | 86% | 1016.9 hPa | 0 mm | - | 0 W/m² | - |
| 1787784933 | 16.67° C | 87% | 1016.9 hPa | 0 mm | - | 0 W/m² | - |
| 1787784106 | 17.22° C | 86% | 1016.8 hPa | 0 mm | - | 0 W/m² | - |
| 1787783733 | 17.22° C | 86% | 1016.8 hPa | 0 mm | - | 0 W/m² | - |
| 1787783132 | 17.78° C | 84% | 1016.7 hPa | 0 mm | - | 0 W/m² | - |
| 1787782307 | 17.78° C | 83% | 1016.6 hPa | 0 mm | - | 0 W/m² | - |
| 1787781933 | 17.78° C | 83% | 1016.7 hPa | 0 mm | - | 0 W/m² | - |
| 1787781332 | 18.33° C | 82% | 1016.4 hPa | 0 mm | - | 0 W/m² | - |
| 1787780507 | 18.33° C | 82% | 1016.3 hPa | 0 mm | - | 0 W/m² | - |
| 1787780133 | 18.33° C | 82% | 1016.3 hPa | 0 mm | - | 0 W/m² | - |
| 1787779532 | 18.33° C | 82% | 1016.3 hPa | 0 mm | - | 0 W/m² | - |
| 1787778706 | 18.33° C | 82% | 1016.3 hPa | 0 mm | - | 0 W/m² | - |
| 1787778339 | 18.89° C | 78% | 1016 hPa | 0 mm | - | 0 W/m² | - |
| 1787777733 | 18.89° C | 79% | 1016 hPa | 0 mm | - | 0 W/m² | - |
| 1787776906 | 19.44° C | 77% | 1015.9 hPa | 0 mm | - | 0 W/m² | - |
| 1787776533 | 20° C | 75% | 1015.7 hPa | 0 mm | - | 0 W/m² | - |
| 1787775933 | 20° C | 75% | 1015.6 hPa | 0 mm | - | 0 W/m² | - |
| 1787775107 | 20.56° C | 73% | 1015.5 hPa | 0 mm | - | 0 W/m² | - |
| 1787774733 | 20° C | 78% | 1015.3 hPa | 0 mm | - | 0 W/m² | - |
| 1787774133 | 20° C | 75% | 1015.2 hPa | 0 mm | - | 0 W/m² | - |
| 1787773306 | 20.56° C | 75% | 1015 hPa | 0 mm | - | 0 W/m² | - |
| 1787772933 | 20.56° C | 73% | 1014.7 hPa | 0 mm | - | 0 W/m² | - |
| 1787772333 | 20.56° C | 73% | 1014.8 hPa | 0 mm | - | 0 W/m² | - |
| 1787771506 | 21.11° C | 72% | 1014.6 hPa | 0 mm | - | 0 W/m² | - |
| 1787771133 | 21.67° C | 69% | 1014.5 hPa | 0 mm | - | 0 W/m² | - |
* Rain latest hour (hover to see other rain measurements)
** Current wind speed in m/s (hover to see current wind gust speed)